createdAt,value
2019-02-24T00:01:47.723Z,23.96
2019-02-24T00:04:17.466Z,23.93
2019-02-24T00:06:47.038Z,24.91
2019-02-24T00:09:17.770Z,24.19
2019-02-24T00:11:47.587Z,24.58
2019-02-24T00:14:17.044Z,24.51
2019-02-24T00:16:46.767Z,24.43
2019-02-24T00:19:16.314Z,25.33
2019-02-24T00:21:45.657Z,25.58
2019-02-24T00:24:15.614Z,25.53
2019-02-24T00:26:46.768Z,25.63
2019-02-24T00:29:16.100Z,25.71
2019-02-24T00:31:45.813Z,25.98
2019-02-24T00:34:15.166Z,26.06
2019-02-24T00:36:44.389Z,25.92
2019-02-24T00:39:15.826Z,25.88
2019-02-24T00:41:48.948Z,26.31
2019-02-24T00:44:19.240Z,26.55
2019-02-24T00:46:51.831Z,26.65
2019-02-24T00:49:21.834Z,26.71
2019-02-24T00:51:51.840Z,26.86
2019-02-24T00:54:21.981Z,26.12
2019-02-24T00:56:51.392Z,25.97
2019-02-24T00:59:21.059Z,26.35
2019-02-24T01:01:51.682Z,26.80
2019-02-24T01:04:20.926Z,26.55
2019-02-24T01:06:50.695Z,26.63
2019-02-24T01:09:20.045Z,27.25
2019-02-24T01:11:49.273Z,29.09
2019-02-24T01:14:18.798Z,30.36
2019-02-24T01:16:48.153Z,30.91
2019-02-24T01:19:17.435Z,31.20
2019-02-24T01:21:46.970Z,31.41
2019-02-24T01:24:16.256Z,31.84
2019-02-24T01:26:45.512Z,31.99
2019-02-24T01:29:15.205Z,31.98
2019-02-24T01:31:44.508Z,32.20
2019-02-24T01:34:13.854Z,31.81
2019-02-24T01:36:46.357Z,31.66
2019-02-24T01:39:15.626Z,31.42
2019-02-24T01:41:44.925Z,31.59
2019-02-24T01:44:14.489Z,31.42
2019-02-24T01:46:45.652Z,31.86
2019-02-24T01:49:14.847Z,31.91
2019-02-24T01:51:44.384Z,31.44
2019-02-24T01:54:13.768Z,31.39
2019-02-24T01:56:43.052Z,31.75
2019-02-24T01:59:12.736Z,32.12
2019-02-24T02:01:42.033Z,32.63
2019-02-24T02:04:13.897Z,34.25
2019-02-24T02:06:43.524Z,34.88
2019-02-24T02:09:12.795Z,35.26
2019-02-24T02:11:42.124Z,35.26
2019-02-24T02:14:14.088Z,35.06
2019-02-24T02:16:45.263Z,35.49
2019-02-24T02:19:14.480Z,35.17
2019-02-24T02:21:44.314Z,35.49
2019-02-24T02:24:13.665Z,35.77
2019-02-24T02:26:42.877Z,35.93
2019-02-24T02:29:12.495Z,36.50
2019-02-24T02:31:41.884Z,36.65
2019-02-24T02:34:11.106Z,36.61
2019-02-24T02:36:40.665Z,36.52
2019-02-24T02:39:10.201Z,36.66
2019-02-24T02:41:39.443Z,37.52
2019-02-24T02:44:08.966Z,37.31
2019-02-24T02:46:38.236Z,37.58
2019-02-24T02:49:07.455Z,37.81
2019-02-24T02:51:36.973Z,37.77
2019-02-24T02:54:09.406Z,38.84
2019-02-24T02:56:38.597Z,38.30
2019-02-24T02:59:07.814Z,38.23
2019-02-24T03:01:37.038Z,38.22
2019-02-24T03:04:06.583Z,38.39
2019-02-24T03:06:40.997Z,40.32
2019-02-24T03:09:11.607Z,40.72
2019-02-24T03:11:42.104Z,40.56
2019-02-24T03:14:11.338Z,40.55
2019-02-24T03:16:40.563Z,40.84
2019-02-24T03:19:10.048Z,40.99
2019-02-24T03:21:39.288Z,41.39
2019-02-24T03:24:08.818Z,41.80
2019-02-24T03:26:38.606Z,42.26
2019-02-24T03:29:07.880Z,42.53
2019-02-24T03:31:37.120Z,42.63
2019-02-24T03:34:06.629Z,42.60
2019-02-24T03:36:35.870Z,42.68
2019-02-24T03:39:05.577Z,42.39
2019-02-24T03:41:34.828Z,42.28
2019-02-24T03:44:07.286Z,42.39
2019-02-24T03:46:36.528Z,42.75
2019-02-24T03:49:06.062Z,43.01
2019-02-24T03:51:35.309Z,43.30
2019-02-24T03:54:07.384Z,43.48
2019-02-24T03:56:37.010Z,43.69
2019-02-24T03:59:14.657Z,43.82
2019-02-24T04:01:37.191Z,44.06
2019-02-24T04:04:06.748Z,44.25
2019-02-24T04:06:35.998Z,44.52
2019-02-24T04:09:06.170Z,44.83
2019-02-24T04:11:35.660Z,45.07
2019-02-24T04:14:07.700Z,45.12
2019-02-24T04:16:36.920Z,45.33
2019-02-24T04:19:06.211Z,45.33
2019-02-24T04:21:35.772Z,45.69
2019-02-24T04:24:08.107Z,45.94
2019-02-24T04:26:37.314Z,46.73
2019-02-24T04:29:06.577Z,46.73
2019-02-24T04:31:35.851Z,46.52
2019-02-24T04:34:06.188Z,46.53
2019-02-24T04:36:35.770Z,46.11
2019-02-24T04:39:07.858Z,46.02
2019-02-24T04:41:37.594Z,46.06
2019-02-24T04:44:07.058Z,45.92
2019-02-24T04:46:36.288Z,45.76
2019-02-24T04:49:07.825Z,45.67
2019-02-24T04:51:37.351Z,45.59
2019-02-24T04:54:06.666Z,45.24
2019-02-24T04:56:35.893Z,45.15
2019-02-24T04:59:05.271Z,46.07
2019-02-24T05:01:34.501Z,46.30
2019-02-24T05:04:06.739Z,46.67
2019-02-24T05:06:36.332Z,46.84
2019-02-24T05:09:05.698Z,47.13
2019-02-24T05:11:35.780Z,47.43
2019-02-24T05:14:06.929Z,47.47
2019-02-24T05:16:36.167Z,47.04
2019-02-24T05:19:05.399Z,47.04
2019-02-24T05:21:34.663Z,46.95
2019-02-24T05:24:06.302Z,47.21
2019-02-24T05:26:35.568Z,47.41
2019-02-24T05:29:04.831Z,47.78
2019-02-24T05:31:34.045Z,47.20
2019-02-24T05:34:03.927Z,47.20
2019-02-24T05:36:33.175Z,47.72
2019-02-24T05:39:02.674Z,47.60
2019-02-24T05:41:31.883Z,47.60
2019-02-24T05:44:01.226Z,47.80
2019-02-24T05:46:30.775Z,48.11
2019-02-24T05:49:00.003Z,47.68
2019-02-24T05:51:29.326Z,47.57
2019-02-24T05:53:58.666Z,47.57
2019-02-24T05:56:28.174Z,48.26
2019-02-24T05:58:57.475Z,48.73
2019-02-24T06:01:26.687Z,48.09
2019-02-24T06:03:56.519Z,48.09
2019-02-24T06:06:26.159Z,47.93
2019-02-24T06:08:55.402Z,47.48
2019-02-24T06:11:24.651Z,47.52
2019-02-24T06:13:54.225Z,47.29
2019-02-24T06:16:23.417Z,47.29
2019-02-24T06:18:52.637Z,47.19
2019-02-24T06:21:21.877Z,46.99
2019-02-24T06:23:51.124Z,46.57
2019-02-24T06:26:20.343Z,45.91
2019-02-24T06:28:49.906Z,45.91
2019-02-24T06:31:19.130Z,45.67
2019-02-24T06:33:48.357Z,46.23
2019-02-24T06:36:17.897Z,46.54
2019-02-24T06:38:47.423Z,46.52
2019-02-24T06:41:16.616Z,46.52
2019-02-24T06:43:45.893Z,46.29
2019-02-24T06:46:15.120Z,45.96
2019-02-24T06:48:44.334Z,46.23
2019-02-24T06:51:14.400Z,46.23
2019-02-24T06:53:43.619Z,46.83
2019-02-24T06:56:12.846Z,47.59
2019-02-24T06:58:42.438Z,47.85
2019-02-24T07:01:11.702Z,47.69
2019-02-24T07:03:40.950Z,47.97
2019-02-24T07:06:10.932Z,47.27
2019-02-24T07:08:40.159Z,47.27
2019-02-24T07:11:09.411Z,46.45
2019-02-24T07:13:39.091Z,46.51
2019-02-24T07:16:08.324Z,47.52
2019-02-24T07:18:37.619Z,46.50
2019-02-24T07:21:06.880Z,47.87
2019-02-24T07:23:36.474Z,47.21
2019-02-24T07:26:05.738Z,47.11
2019-02-24T07:28:34.967Z,47.19
2019-02-24T07:31:04.483Z,47.42
2019-02-24T07:33:33.714Z,47.45
2019-02-24T07:36:05.267Z,47.62
2019-02-24T07:38:34.856Z,48.81
2019-02-24T07:41:04.155Z,48.87
2019-02-24T07:43:33.606Z,48.72
2019-02-24T07:46:03.939Z,48.78
2019-02-24T07:48:33.200Z,48.35
2019-02-24T07:51:02.810Z,48.10
2019-02-24T07:53:32.106Z,47.46
2019-02-24T07:56:01.331Z,46.90
2019-02-24T07:58:31.010Z,45.37
2019-02-24T08:01:00.217Z,43.26
2019-02-24T08:03:29.449Z,41.32
2019-02-24T08:05:59.362Z,39.24
2019-02-24T08:08:28.597Z,37.30
2019-02-24T08:10:58.178Z,35.04
2019-02-24T08:13:27.407Z,32.90
2019-02-24T08:18:33.842Z,30.43
2019-02-24T08:21:04.379Z,29.97
2019-02-24T08:23:34.156Z,29.80
2019-02-24T08:26:06.553Z,29.67
2019-02-24T08:28:35.837Z,30.27
2019-02-24T08:31:07.957Z,30.31
2019-02-24T08:33:37.470Z,31.08
2019-02-24T08:36:07.017Z,31.13
2019-02-24T08:38:36.764Z,30.58
2019-02-24T08:41:06.081Z,30.46
2019-02-24T08:43:35.349Z,30.17
2019-02-24T08:46:05.891Z,30.27
2019-02-24T08:48:35.251Z,30.21
2019-02-24T08:51:04.785Z,30.00
2019-02-24T08:53:35.682Z,30.53
2019-02-24T08:56:06.360Z,30.36
2019-02-24T08:58:35.612Z,30.05
2019-02-24T09:01:05.217Z,30.28
2019-02-24T09:03:34.606Z,30.30
2019-02-24T09:06:06.780Z,30.21
2019-02-24T09:08:36.652Z,30.16
2019-02-24T09:11:12.021Z,30.51
2019-02-24T09:13:41.594Z,30.04
2019-02-24T09:16:12.301Z,30.48
2019-02-24T09:18:41.611Z,30.13
2019-02-24T09:21:12.906Z,29.67
2019-02-24T09:23:42.675Z,29.65
2019-02-24T09:26:12.270Z,29.02
2019-02-24T09:28:41.597Z,28.40
2019-02-24T09:31:11.579Z,27.87
2019-02-24T09:33:41.072Z,27.41
2019-02-24T09:36:11.073Z,27.15
2019-02-24T09:42:12.158Z,26.50
2019-02-24T09:44:41.576Z,25.65
2019-02-24T09:47:10.886Z,25.47
2019-02-24T09:49:40.751Z,24.98
2019-02-24T09:52:10.024Z,23.97
2019-02-24T09:54:39.266Z,23.89
2019-02-24T09:57:08.939Z,24.06
2019-02-24T09:59:38.290Z,23.62
2019-02-24T10:02:07.643Z,22.86
2019-02-24T10:04:37.313Z,22.26
2019-02-24T10:07:06.627Z,22.03
2019-02-24T10:09:35.948Z,21.68
2019-02-24T10:12:08.594Z,21.07
2019-02-24T10:14:37.857Z,21.09
2019-02-24T10:17:07.132Z,20.79
2019-02-24T10:19:36.750Z,20.09
2019-02-24T10:22:08.000Z,19.71
2019-02-24T10:24:37.308Z,18.98
2019-02-24T10:27:07.042Z,18.85
2019-02-24T10:29:36.360Z,17.80
2019-02-24T10:32:08.693Z,17.61
2019-02-24T10:34:38.383Z,17.27
2019-02-24T10:37:07.721Z,17.19
2019-02-24T10:39:37.304Z,17.15
2019-02-24T10:42:06.958Z,16.78
2019-02-24T10:44:36.370Z,16.72
2019-02-24T10:47:08.763Z,17.00
2019-02-24T10:49:38.483Z,16.94
2019-02-24T10:52:07.776Z,16.87
2019-02-24T10:54:37.094Z,16.93
2019-02-24T10:57:09.893Z,17.10
2019-02-24T10:59:37.992Z,16.97
2019-02-24T11:02:07.308Z,16.77
2019-02-24T11:04:38.104Z,16.62
2019-02-24T11:07:07.416Z,16.44
2019-02-24T11:09:36.807Z,16.12
2019-02-24T11:12:06.523Z,16.35
2019-02-24T11:14:35.845Z,15.88
2019-02-24T11:17:05.171Z,15.46
2019-02-24T11:19:34.834Z,15.29
2019-02-24T11:22:05.161Z,15.51
2019-02-24T11:24:34.685Z,15.64
2019-02-24T11:27:04.622Z,15.77
2019-02-24T11:29:34.023Z,15.48
2019-02-24T11:32:06.299Z,15.07
2019-02-24T11:34:35.977Z,14.66
2019-02-24T11:37:05.350Z,14.27
2019-02-24T11:39:35.669Z,13.61
2019-02-24T11:42:06.040Z,13.55
2019-02-24T11:44:35.321Z,13.28
2019-02-24T11:47:04.664Z,13.09
2019-02-24T11:49:34.036Z,12.74
2019-02-24T11:52:06.264Z,12.76
2019-02-24T11:54:35.865Z,12.83
2019-02-24T11:57:05.434Z,12.74
2019-02-24T11:59:34.962Z,12.43
2019-02-24T12:02:05.946Z,11.98
2019-02-24T12:04:35.652Z,11.46
2019-02-24T12:07:05.221Z,11.62
2019-02-24T12:09:35.067Z,11.61
2019-02-24T12:12:07.435Z,11.61
2019-02-24T12:14:37.083Z,11.56
2019-02-24T12:17:06.686Z,11.56
2019-02-24T12:19:36.286Z,11.42
2019-02-24T12:22:09.100Z,11.61
2019-02-24T12:24:38.712Z,11.60
2019-02-24T12:27:09.351Z,11.68
2019-02-24T12:29:39.206Z,11.67
2019-02-24T12:32:08.802Z,11.59
2019-02-24T12:34:38.418Z,11.82
2019-02-24T12:37:09.366Z,11.68
2019-02-24T12:39:38.884Z,11.44
2019-02-24T12:42:08.481Z,11.39
2019-02-24T12:44:38.372Z,11.17
2019-02-24T12:47:07.928Z,11.38
2019-02-24T12:49:37.590Z,11.26
2019-02-24T12:52:07.623Z,11.45
2019-02-24T12:54:37.369Z,11.52
2019-02-24T12:57:07.210Z,11.71
2019-02-24T12:59:37.146Z,11.69
2019-02-24T13:02:06.739Z,11.77
2019-02-24T13:04:36.342Z,11.88
2019-02-24T13:07:06.268Z,12.09
2019-02-24T13:09:35.805Z,12.36
2019-02-24T13:12:06.718Z,12.53
2019-02-24T13:14:36.774Z,12.65
2019-02-24T13:17:06.379Z,12.88
2019-02-24T13:19:36.186Z,13.11
2019-02-24T13:22:06.393Z,12.94
2019-02-24T13:24:36.016Z,12.79
2019-02-24T13:27:06.037Z,12.83
2019-02-24T13:29:35.829Z,12.81
2019-02-24T13:32:14.635Z,12.89
2019-02-24T13:34:38.323Z,13.06
2019-02-24T13:37:08.015Z,13.06
2019-02-24T13:39:37.966Z,13.42
2019-02-24T13:42:07.730Z,13.29
2019-02-24T13:44:37.348Z,13.43
2019-02-24T13:47:08.620Z,13.49
2019-02-24T13:49:38.217Z,13.37
2019-02-24T13:52:07.836Z,13.23
2019-02-24T13:54:37.880Z,13.48
2019-02-24T13:57:07.577Z,13.85
2019-02-24T13:59:37.255Z,13.95
2019-02-24T14:02:07.426Z,13.72
2019-02-24T14:04:37.135Z,14.01
2019-02-24T14:07:06.841Z,14.13
2019-02-24T14:09:36.848Z,14.55
2019-02-24T14:12:09.706Z,14.64
2019-02-24T14:14:39.563Z,15.13
2019-02-24T14:17:09.852Z,15.07
2019-02-24T14:19:39.858Z,14.97
2019-02-24T14:22:09.863Z,14.98
2019-02-24T14:24:39.806Z,15.12
2019-02-24T14:27:09.572Z,15.17
2019-02-24T14:29:40.283Z,15.50
2019-02-24T14:32:10.259Z,15.57
2019-02-24T14:34:39.998Z,15.90
2019-02-24T14:37:09.692Z,16.54
2019-02-24T14:39:39.750Z,15.86
2019-02-24T14:42:09.522Z,15.82
2019-02-24T14:44:39.236Z,15.66
2019-02-24T14:47:09.249Z,15.66
2019-02-24T14:49:38.996Z,15.81
2019-02-24T14:52:09.975Z,15.87
2019-02-24T14:54:39.998Z,16.10
2019-02-24T14:57:09.783Z,16.21
2019-02-24T14:59:39.476Z,16.46
2019-02-24T15:02:09.466Z,16.68
2019-02-24T15:04:39.926Z,16.84
2019-02-24T15:07:09.755Z,17.14
2019-02-24T15:12:13.760Z,17.39
2019-02-24T15:14:43.955Z,17.39
2019-02-24T15:17:14.173Z,17.47
2019-02-24T15:19:44.397Z,18.00
2019-02-24T15:22:14.401Z,17.80
2019-02-24T15:24:44.391Z,18.37
2019-02-24T15:27:14.132Z,18.27
2019-02-24T15:29:43.833Z,18.25
2019-02-24T15:32:13.821Z,18.23
2019-02-24T15:34:43.560Z,18.31
2019-02-24T15:37:13.385Z,18.69
2019-02-24T15:39:43.911Z,18.46
2019-02-24T15:42:14.085Z,18.63
2019-02-24T15:44:43.762Z,18.60
2019-02-24T15:47:13.891Z,18.53
2019-02-24T15:49:43.690Z,18.20
2019-02-24T15:52:13.448Z,17.85
2019-02-24T15:54:43.514Z,17.66
2019-02-24T15:57:13.226Z,17.52
2019-02-24T15:59:42.932Z,17.50
2019-02-24T16:02:13.239Z,17.42
2019-02-24T16:04:43.052Z,17.37
2019-02-24T16:07:13.165Z,17.41
2019-02-24T16:09:43.240Z,17.47
2019-02-24T16:12:13.102Z,17.70
2019-02-24T16:14:43.217Z,17.44
2019-02-24T16:17:19.780Z,17.58
2019-02-24T16:19:49.522Z,16.58
2019-02-24T16:22:19.598Z,16.69
2019-02-24T16:24:49.385Z,16.92
2019-02-24T16:27:19.101Z,17.25
2019-02-24T16:29:49.107Z,17.46
2019-02-24T16:32:19.284Z,17.92
2019-02-24T16:34:48.990Z,18.20
2019-02-24T16:37:20.042Z,18.61
2019-02-24T16:39:49.777Z,19.03
2019-02-24T16:42:19.548Z,19.15
2019-02-24T16:44:49.892Z,19.48
2019-02-24T16:47:19.641Z,19.84
2019-02-24T16:49:49.467Z,20.21
2019-02-24T16:52:19.491Z,20.36
2019-02-24T16:54:52.614Z,20.72
2019-02-24T16:57:20.858Z,20.87
2019-02-24T16:59:51.924Z,20.90
2019-02-24T17:02:23.058Z,21.31
2019-02-24T17:04:53.070Z,21.76
2019-02-24T17:07:23.066Z,21.59
2019-02-24T17:09:52.814Z,22.02
2019-02-24T17:12:23.529Z,22.04
2019-02-24T17:14:53.527Z,22.18
2019-02-24T17:17:24.686Z,22.43
2019-02-24T17:19:54.389Z,22.45
2019-02-24T17:22:24.562Z,22.63
2019-02-24T17:24:54.345Z,22.83
2019-02-24T17:27:24.084Z,22.98
2019-02-24T17:29:54.217Z,23.26
2019-02-24T17:32:24.131Z,23.42
2019-02-24T17:34:53.843Z,24.12
2019-02-24T17:37:23.853Z,23.62
2019-02-24T17:39:53.728Z,24.39
2019-02-24T17:42:24.718Z,25.16
2019-02-24T17:44:54.951Z,24.08
2019-02-24T17:47:24.728Z,24.43
2019-02-24T17:49:57.796Z,24.35
2019-02-24T17:52:27.840Z,24.44
2019-02-24T17:54:57.966Z,24.87
2019-02-24T17:57:27.870Z,24.85
2019-02-24T17:59:58.458Z,24.82
2019-02-24T18:02:28.734Z,24.67
2019-02-24T18:04:58.454Z,24.76
2019-02-24T18:07:28.476Z,24.84
2019-02-24T18:10:03.020Z,24.92
2019-02-24T18:12:34.004Z,25.13
2019-02-24T18:15:03.873Z,25.11
2019-02-24T18:17:33.776Z,25.36
2019-02-24T18:20:05.496Z,25.06
2019-02-24T18:22:35.244Z,25.34
2019-02-24T18:25:05.439Z,26.16
2019-02-24T18:27:35.269Z,25.71
2019-02-24T18:30:07.621Z,26.29
2019-02-24T18:32:37.786Z,25.99
2019-02-24T18:35:07.759Z,26.44
2019-02-24T18:37:37.495Z,26.58
2019-02-24T18:40:08.119Z,26.61
2019-02-24T18:42:39.512Z,26.77
2019-02-24T18:45:10.036Z,26.87
2019-02-24T18:47:44.122Z,26.81
2019-02-24T18:50:14.086Z,26.31
2019-02-24T18:52:43.956Z,26.52
2019-02-24T18:55:21.668Z,26.51
2019-02-24T18:57:51.365Z,27.00
2019-02-24T19:00:21.211Z,27.51
2019-02-24T19:02:51.255Z,27.18
2019-02-24T19:05:21.080Z,27.16
2019-02-24T19:07:52.232Z,27.00
2019-02-24T19:10:22.084Z,27.30
2019-02-24T19:12:51.996Z,27.38
2019-02-24T19:15:21.822Z,27.14
2019-02-24T19:17:51.611Z,27.28
2019-02-24T19:20:22.232Z,27.57
2019-02-24T19:22:52.076Z,27.04
2019-02-24T19:25:22.202Z,27.29
2019-02-24T19:27:52.847Z,27.17
2019-02-24T19:30:22.681Z,26.92
2019-02-24T19:32:52.854Z,26.95
2019-02-24T19:35:22.691Z,27.00
2019-02-24T19:38:00.423Z,26.89
2019-02-24T19:40:30.486Z,26.52
2019-02-24T19:43:00.257Z,26.63
2019-02-24T19:45:30.197Z,27.07
2019-02-24T19:48:00.359Z,26.88
2019-02-24T19:50:30.311Z,26.72
2019-02-24T19:53:00.256Z,26.98
2019-02-24T19:55:31.354Z,27.70
2019-02-24T19:58:01.385Z,27.54
2019-02-24T20:00:31.484Z,27.60
2019-02-24T20:03:01.723Z,27.26
2019-02-24T20:05:31.626Z,27.54
2019-02-24T20:08:01.373Z,27.74
2019-02-24T20:10:31.557Z,28.24
2019-02-24T20:13:01.339Z,28.30
2019-02-24T20:15:31.246Z,28.48
2019-02-24T20:18:05.811Z,28.37
2019-02-24T20:20:35.612Z,28.15
2019-02-24T20:23:05.800Z,28.13
2019-02-24T20:25:35.605Z,28.00
2019-02-24T20:28:06.190Z,28.17
2019-02-24T20:30:36.374Z,28.41
2019-02-24T20:33:06.259Z,28.29
2019-02-24T20:35:36.021Z,28.04
2019-02-24T20:38:09.037Z,28.53
2019-02-24T20:40:39.052Z,28.42
2019-02-24T20:43:08.786Z,27.92
2019-02-24T20:45:39.758Z,28.17
2019-02-24T20:48:09.689Z,28.17
2019-02-24T20:50:39.427Z,28.41
2019-02-24T20:53:09.550Z,28.63
2019-02-24T20:55:39.640Z,28.88
2019-02-24T20:58:09.623Z,29.78
2019-02-24T21:00:40.931Z,28.74
2019-02-24T21:03:11.008Z,29.61
2019-02-24T21:05:40.913Z,29.52
2019-02-24T21:08:11.374Z,29.08
2019-02-24T21:10:41.323Z,28.90
2019-02-24T21:13:11.082Z,29.02
2019-02-24T21:15:41.233Z,29.36
2019-02-24T21:18:11.233Z,30.48
2019-02-24T21:20:40.988Z,29.79
2019-02-24T21:23:11.327Z,29.45
2019-02-24T21:25:41.099Z,29.45
2019-02-24T21:28:10.842Z,29.65
2019-02-24T21:30:40.827Z,29.81
2019-02-24T21:33:10.713Z,29.44
2019-02-24T21:35:40.411Z,29.32
2019-02-24T21:38:10.475Z,29.38
2019-02-24T21:40:40.450Z,29.50
2019-02-24T21:43:10.142Z,29.62
2019-02-24T21:45:41.645Z,29.70
2019-02-24T21:48:11.643Z,29.52
2019-02-24T21:50:41.332Z,29.42
2019-02-24T21:53:11.333Z,29.57
2019-02-24T21:55:40.971Z,29.47
2019-02-24T21:58:10.707Z,29.50
2019-02-24T22:00:40.832Z,29.46
2019-02-24T22:03:10.341Z,29.84
2019-02-24T22:05:39.648Z,30.00
2019-02-24T22:08:08.974Z,30.20
2019-02-24T22:10:39.099Z,30.50
2019-02-24T22:13:08.428Z,30.29
2019-02-24T22:15:37.743Z,30.56
2019-02-24T22:18:07.084Z,30.22
2019-02-24T22:20:36.314Z,30.35
2019-02-24T22:23:06.273Z,30.38
2019-02-24T22:25:35.935Z,30.69
2019-02-24T22:28:10.987Z,30.35
2019-02-24T22:30:42.320Z,29.82
2019-02-24T22:33:11.864Z,29.95
2019-02-24T22:35:41.224Z,30.20
2019-02-24T22:38:10.567Z,30.63
2019-02-24T22:40:39.887Z,29.90
2019-02-24T22:43:10.905Z,29.49
2019-02-24T22:45:40.246Z,29.17
2019-02-24T22:48:09.492Z,29.29
2019-02-24T22:50:39.055Z,29.04
2019-02-24T22:53:08.397Z,28.95
2019-02-24T22:55:37.786Z,28.82
2019-02-24T22:58:07.629Z,28.94
2019-02-24T23:00:53.530Z,28.86
2019-02-24T23:03:23.728Z,28.99
2019-02-24T23:05:53.152Z,29.06
2019-02-24T23:08:22.501Z,29.29
2019-02-24T23:10:52.668Z,29.54
2019-02-24T23:13:21.907Z,30.08
2019-02-24T23:15:51.307Z,30.30
2019-02-24T23:18:22.280Z,30.47
2019-02-24T23:20:51.577Z,30.50
2019-02-24T23:23:20.899Z,30.45
2019-02-24T23:25:50.696Z,30.39
2019-02-24T23:28:20.146Z,30.46
2019-02-24T23:30:49.804Z,30.43
2019-02-24T23:33:19.556Z,30.51
2019-02-24T23:35:48.836Z,30.35
2019-02-24T23:38:18.121Z,30.45
2019-02-24T23:40:47.829Z,30.74
2019-02-24T23:43:17.059Z,31.13
2019-02-24T23:45:46.340Z,31.25
2019-02-24T23:48:15.578Z,31.49
2019-02-24T23:50:44.827Z,31.61
2019-02-24T23:53:14.190Z,31.96
2019-02-24T23:55:44.719Z,32.28
2019-02-24T23:58:14.021Z,32.77
